Time;durP1;ratioP1;P1;durP2;ratioP2;P2;SDS_P1;SDS_P2;PMS_P1;PMS_P2;Temp;Humidity;BMP_temperature;BMP_pressure;BME280_temperature;BME280_humidity;BME280_pressure;Samples;Min_cycle;Max_cycle;Signal;HPM_P1;HPM_P2
2021/01/01 00:01:40;;;;;;;0.32;0.32;;;4.00;99.90;;;;;;5035153;28;20213;-74
2021/01/01 00:04:07;;;;;;;1.65;1.65;;;4.10;99.90;;;;;;5035907;28;20261;-75
2021/01/01 00:06:33;;;;;;;1.73;1.08;;;4.10;99.90;;;;;;5036191;28;20177;-74
2021/01/01 00:08:59;;;;;;;1.58;1.48;;;4.20;99.90;;;;;;5035609;28;20546;-75
2021/01/01 00:11:25;;;;;;;8.10;3.13;;;4.20;99.90;;;;;;5035130;28;20189;-74
2021/01/01 00:13:52;;;;;;;0.70;0.70;;;4.20;99.90;;;;;;5035733;28;20645;-74
2021/01/01 00:16:17;;;;;;;0.57;0.57;;;4.10;99.90;;;;;;5052317;28;20205;-74
2021/01/01 00:18:43;;;;;;;0.40;0.40;;;4.10;99.90;;;;;;5055562;28;20251;-75
2021/01/01 00:21:10;;;;;;;0.40;0.40;;;4.10;99.90;;;;;;5054797;28;20196;-73
2021/01/01 00:23:37;;;;;;;0.68;0.68;;;4.10;99.90;;;;;;5047625;28;20170;-75
2021/01/01 00:26:12;;;;;;;0.30;0.30;;;4.10;99.90;;;;;;5035974;28;20261;-75
2021/01/01 00:28:48;;;;;;;0.88;0.88;;;4.10;99.90;;;;;;5035267;28;20272;-75
2021/01/01 00:31:15;;;;;;;0.40;0.40;;;4.10;99.90;;;;;;5034651;28;20272;-74
2021/01/01 00:33:41;;;;;;;0.40;0.40;;;4.10;99.90;;;;;;5035071;28;20255;-75
2021/01/01 00:36:07;;;;;;;0.30;0.30;;;4.00;99.90;;;;;;5035221;28;20190;-75
2021/01/01 00:38:33;;;;;;;0.40;0.40;;;4.00;99.90;;;;;;5043652;28;20511;-76
2021/01/01 00:40:59;;;;;;;0.50;0.50;;;4.00;99.90;;;;;;5054529;28;20288;-74
2021/01/01 00:43:24;;;;;;;2.20;1.70;;;4.00;99.90;;;;;;5053691;28;20169;-74
2021/01/01 00:45:50;;;;;;;1.17;1.17;;;4.00;99.90;;;;;;5053484;28;20174;-76
2021/01/01 00:48:16;;;;;;;1.53;1.43;;;3.90;99.90;;;;;;5054324;28;20288;-75
2021/01/01 00:50:44;;;;;;;0.73;0.68;;;3.80;99.90;;;;;;5054314;28;20166;-75
2021/01/01 00:53:10;;;;;;;0.40;0.40;;;3.80;99.90;;;;;;5054868;28;20524;-73
2021/01/01 00:55:36;;;;;;;0.50;0.50;;;3.70;99.90;;;;;;5053678;28;20166;-74
2021/01/01 00:58:01;;;;;;;0.30;0.30;;;3.70;99.90;;;;;;5057705;28;20553;-74
2021/01/01 01:00:27;;;;;;;2.47;2.33;;;3.80;99.90;;;;;;5048790;28;20565;-73
2021/01/01 01:02:52;;;;;;;0.73;0.73;;;3.80;99.90;;;;;;5035418;28;20186;-75
2021/01/01 01:05:18;;;;;;;3.37;2.60;;;3.80;99.90;;;;;;5034657;28;20707;-73
2021/01/01 01:07:44;;;;;;;1.57;1.47;;;3.80;99.90;;;;;;5037009;28;20185;-73
2021/01/01 01:10:12;;;;;;;1.70;1.17;;;3.80;99.90;;;;;;5054117;28;20170;-75
2021/01/01 01:12:39;;;;;;;0.30;0.30;;;3.90;99.90;;;;;;5054243;28;20847;-75
2021/01/01 01:15:06;;;;;;;1.20;1.20;;;3.90;99.90;;;;;;5052875;28;20205;-75
2021/01/01 01:17:31;;;;;;;2.80;2.63;;;3.90;99.90;;;;;;5054279;28;20178;-74
2021/01/01 01:19:57;;;;;;;1.27;0.97;;;3.80;99.90;;;;;;5054097;28;20243;-75
2021/01/01 01:22:23;;;;;;;0.33;0.33;;;3.90;99.90;;;;;;5052395;28;20207;-75
2021/01/01 01:24:48;;;;;;;0.30;0.30;;;3.90;99.90;;;;;;5054217;28;20201;-74
2021/01/01 01:27:14;;;;;;;2.40;2.30;;;3.90;99.90;;;;;;5053607;28;20169;-74
2021/01/01 01:29:39;;;;;;;3.27;3.07;;;3.90;99.90;;;;;;5052648;28;20664;-73
2021/01/01 01:32:08;;;;;;;0.60;0.60;;;3.90;99.90;;;;;;5051850;28;20265;-75
2021/01/01 01:34:33;;;;;;;8.32;2.78;;;3.90;99.90;;;;;;5049147;28;20177;-74
2021/01/01 01:36:59;;;;;;;0.40;0.40;;;4.00;99.90;;;;;;5033918;28;20546;-74
2021/01/01 01:39:25;;;;;;;2.30;2.03;;;4.00;99.90;;;;;;5033936;28;20170;-74
2021/01/01 01:41:50;;;;;;;2.20;2.10;;;4.00;99.90;;;;;;5033324;28;20261;-74
2021/01/01 01:44:16;;;;;;;0.57;0.57;;;4.00;99.90;;;;;;5032538;28;20630;-74
2021/01/01 01:46:44;;;;;;;4.30;2.20;;;4.00;99.90;;;;;;5045142;28;20185;-74
2021/01/01 01:49:14;;;;;;;4.50;2.58;;;4.00;99.90;;;;;;5053715;28;20201;-74
2021/01/01 01:51:45;;;;;;;0.30;0.30;;;4.00;99.90;;;;;;5046948;28;20607;-75
2021/01/01 01:54:11;;;;;;;3.28;3.13;;;4.10;99.90;;;;;;5033644;28;20147;-73
2021/01/01 01:56:37;;;;;;;0.70;0.70;;;4.10;99.90;;;;;;5032351;28;20504;-74
2021/01/01 01:59:03;;;;;;;4.05;3.75;;;4.10;99.90;;;;;;5033551;28;20176;-74
2021/01/01 02:01:30;;;;;;;0.57;0.57;;;4.20;99.90;;;;;;5031600;28;20252;-73
2021/01/01 02:03:56;;;;;;;0.30;0.30;;;4.20;99.90;;;;;;5033591;28;20166;-75
2021/01/01 02:06:22;;;;;;;1.80;1.17;;;4.20;99.90;;;;;;5033835;28;20559;-74
2021/01/01 02:08:51;;;;;;;0.50;0.50;;;4.20;99.90;;;;;;5033399;28;20208;-76
2021/01/01 02:11:17;;;;;;;0.50;0.50;;;4.20;99.90;;;;;;5032913;28;20186;-74
2021/01/01 02:13:49;;;;;;;0.40;0.40;;;4.30;99.90;;;;;;5033569;28;20522;-75
2021/01/01 02:16:16;;;;;;;1.73;0.75;;;4.20;99.90;;;;;;5033341;28;20174;-75
2021/01/01 02:18:43;;;;;;;0.95;0.90;;;4.20;99.90;;;;;;5031889;28;20170;-74
2021/01/01 02:21:13;;;;;;;0.60;0.60;;;4.10;99.90;;;;;;5031544;28;20202;-75
2021/01/01 02:23:38;;;;;;;0.77;0.77;;;4.10;99.90;;;;;;5031999;28;20174;-74
2021/01/01 02:26:04;;;;;;;2.73;2.50;;;4.10;99.90;;;;;;5036336;28;20645;-74
2021/01/01 02:28:30;;;;;;;1.50;1.40;;;4.20;99.90;;;;;;5051637;28;20568;-75
2021/01/01 02:30:56;;;;;;;0.93;0.93;;;4.20;99.90;;;;;;5052548;28;20169;-75
2021/01/01 02:33:22;;;;;;;5.40;3.40;;;4.20;99.90;;;;;;5053231;28;20172;-74
2021/01/01 02:35:47;;;;;;;1.30;1.30;;;4.20;99.90;;;;;;5052565;28;20177;-74
2021/01/01 02:38:13;;;;;;;0.60;0.60;;;4.20;99.90;;;;;;5052985;28;20177;-74
2021/01/01 02:40:39;;;;;;;0.30;0.30;;;4.20;99.90;;;;;;5055580;28;20169;-75
2021/01/01 02:43:05;;;;;;;1.80;1.70;;;4.20;99.90;;;;;;5057234;28;20521;-74
2021/01/01 02:45:31;;;;;;;2.23;0.83;;;4.30;99.90;;;;;;5057332;28;20545;-74
2021/01/01 02:48:02;;;;;;;0.40;0.40;;;4.30;99.90;;;;;;5048661;28;20459;-74
2021/01/01 02:50:28;;;;;;;0.38;0.38;;;4.30;99.90;;;;;;5036786;28;20463;-74
2021/01/01 02:52:54;;;;;;;0.97;0.97;;;4.30;99.90;;;;;;5036831;28;20185;-75
2021/01/01 02:55:19;;;;;;;0.77;0.77;;;4.30;99.90;;;;;;5036832;28;20610;-74
2021/01/01 02:57:45;;;;;;;0.40;0.40;;;4.40;99.90;;;;;;5041590;28;20256;-75
2021/01/01 03:00:11;;;;;;;0.50;0.50;;;4.40;99.90;;;;;;5056373;28;20177;-73
2021/01/01 03:02:37;;;;;;;0.65;0.65;;;4.40;99.90;;;;;;5054945;28;20197;-73
2021/01/01 03:05:03;;;;;;;0.40;0.40;;;4.30;99.90;;;;;;5056540;28;20188;-74
2021/01/01 03:07:28;;;;;;;0.30;0.30;;;4.20;99.90;;;;;;5055263;28;20201;-74
2021/01/01 03:09:54;;;;;;;2.93;2.83;;;4.20;99.90;;;;;;5056641;28;20172;-76
2021/01/01 03:12:20;;;;;;;0.47;0.47;;;4.10;99.90;;;;;;5052671;28;20190;-75
2021/01/01 03:14:45;;;;;;;0.77;0.77;;;4.10;99.90;;;;;;5036868;28;20170;-75
2021/01/01 03:17:11;;;;;;;0.50;0.50;;;4.10;99.90;;;;;;5036717;28;20170;-74
2021/01/01 03:19:36;;;;;;;0.30;0.30;;;4.10;99.90;;;;;;5036481;28;20184;-75
2021/01/01 03:22:02;;;;;;;0.30;0.20;;;4.10;99.90;;;;;;5035954;28;20674;-74
2021/01/01 03:24:28;;;;;;;0.50;0.50;;;4.10;99.90;;;;;;5055270;28;20586;-74
2021/01/01 03:26:53;;;;;;;0.30;0.30;;;4.20;99.90;;;;;;5056323;28;20518;-75
2021/01/01 03:29:19;;;;;;;0.57;0.53;;;4.20;99.90;;;;;;5056288;28;20201;-76
2021/01/01 03:31:44;;;;;;;2.57;2.47;;;4.10;99.90;;;;;;5055817;28;20186;-75
2021/01/01 03:34:10;;;;;;;0.63;0.63;;;4.10;99.90;;;;;;5056246;28;20161;-75
2021/01/01 03:36:36;;;;;;;2.20;2.20;;;4.10;99.90;;;;;;5055782;28;20515;-76
2021/01/01 03:39:02;;;;;;;0.30;0.30;;;4.10;99.90;;;;;;5054780;28;20403;-76
2021/01/01 03:41:27;;;;;;;0.50;0.50;;;4.10;99.90;;;;;;5055620;28;20194;-73
2021/01/01 03:43:53;;;;;;;0.30;0.30;;;4.10;99.90;;;;;;5052255;28;20477;-75
2021/01/01 03:46:19;;;;;;;0.47;0.47;;;4.00;99.90;;;;;;5036107;28;20228;-75
2021/01/01 03:48:44;;;;;;;0.83;0.83;;;3.90;99.90;;;;;;5034520;28;20203;-77
2021/01/01 03:51:11;;;;;;;0.60;0.50;;;3.80;99.90;;;;;;5035328;28;20254;-77
2021/01/01 03:53:37;;;;;;;0.70;0.70;;;3.80;99.90;;;;;;5035867;28;20518;-77
2021/01/01 03:56:03;;;;;;;0.52;0.52;;;3.80;99.90;;;;;;5035937;28;20162;-76
2021/01/01 03:58:28;;;;;;;0.40;0.40;;;3.80;99.90;;;;;;5037942;28;20499;-77
2021/01/01 04:00:54;;;;;;;0.80;0.80;;;3.80;99.90;;;;;;5055299;28;20530;-77
2021/01/01 04:03:20;;;;;;;0.30;0.30;;;3.80;99.90;;;;;;5055746;28;20315;-75
2021/01/01 04:05:46;;;;;;;0.43;0.43;;;3.90;99.90;;;;;;5054513;28;20189;-77
2021/01/01 04:08:11;;;;;;;0.70;0.70;;;3.80;99.90;;;;;;5037425;28;20209;-75
2021/01/01 04:10:37;;;;;;;0.80;0.80;;;3.80;99.90;;;;;;5055729;28;20580;-77
2021/01/01 04:13:03;;;;;;;0.70;0.70;;;3.80;99.90;;;;;;5055804;28;20185;-75
2021/01/01 04:15:29;;;;;;;0.73;0.73;;;3.80;99.90;;;;;;5055356;28;20227;-77
2021/01/01 04:17:54;;;;;;;0.40;0.40;;;3.70;99.90;;;;;;5055283;28;20201;-76
2021/01/01 04:20:20;;;;;;;0.30;0.30;;;3.80;99.90;;;;;;5049717;28;20182;-76
2021/01/01 04:22:45;;;;;;;1.33;1.20;;;3.80;99.90;;;;;;5035289;28;20201;-75
2021/01/01 04:25:11;;;;;;;0.50;0.50;;;3.70;99.90;;;;;;5035350;28;20174;-77
2021/01/01 04:27:37;;;;;;;0.30;0.30;;;3.70;99.90;;;;;;5035249;28;20252;-75
2021/01/01 04:30:04;;;;;;;0.30;0.30;;;3.70;99.90;;;;;;5034704;28;20424;-76
2021/01/01 04:32:29;;;;;;;0.50;0.50;;;3.70;99.90;;;;;;5034999;28;20201;-75
2021/01/01 04:34:55;;;;;;;0.50;0.50;;;3.70;99.90;;;;;;5034111;28;20626;-76
2021/01/01 04:37:21;;;;;;;0.30;0.30;;;3.70;99.90;;;;;;5036032;28;20162;-74
2021/01/01 04:39:47;;;;;;;0.40;0.40;;;3.70;99.90;;;;;;5035234;28;20173;-74
2021/01/01 04:42:13;;;;;;;0.30;0.30;;;3.60;99.90;;;;;;5042972;28;20185;-77
2021/01/01 04:44:39;;;;;;;3.25;1.85;;;3.60;99.90;;;;;;5055175;28;20200;-76
2021/01/01 04:47:07;;;;;;;0.30;0.30;;;3.70;99.90;;;;;;5053378;28;20169;-75
2021/01/01 04:49:33;;;;;;;0.30;0.30;;;3.60;99.90;;;;;;5054734;28;20419;-74
2021/01/01 04:52:01;;;;;;;0.30;0.30;;;3.60;99.90;;;;;;5054331;28;20208;-77
2021/01/01 04:54:32;;;;;;;0.40;0.40;;;3.70;99.90;;;;;;5053506;28;20585;-75
2021/01/01 04:56:57;;;;;;;0.47;0.47;;;3.70;99.90;;;;;;5046360;28;20166;-77
2021/01/01 04:59:23;;;;;;;0.30;0.30;;;3.70;99.90;;;;;;5034793;28;20249;-76
2021/01/01 05:01:49;;;;;;;0.43;0.43;;;3.70;99.90;;;;;;5033285;28;20952;-75
2021/01/01 05:04:14;;;;;;;0.30;0.30;;;3.70;99.90;;;;;;5034538;28;20163;-77
2021/01/01 05:06:42;;;;;;;0.80;0.77;;;3.70;99.90;;;;;;5034622;28;20177;-76
2021/01/01 05:09:10;;;;;;;0.60;0.60;;;3.70;99.90;;;;;;5033228;28;20198;-75
2021/01/01 05:11:35;;;;;;;0.30;0.30;;;3.60;99.90;;;;;;5040728;28;20196;-77
2021/01/01 05:14:03;;;;;;;0.60;0.60;;;3.60;99.90;;;;;;5054111;28;20570;-76
2021/01/01 05:16:29;;;;;;;0.50;0.50;;;3.70;99.90;;;;;;5054254;28;20184;-75
2021/01/01 05:18:55;;;;;;;2.00;1.60;;;3.60;99.90;;;;;;5054205;28;20173;-75
2021/01/01 05:21:26;;;;;;;0.40;0.40;;;3.60;99.90;;;;;;5052106;28;20201;-74
2021/01/01 05:23:54;;;;;;;0.40;0.40;;;3.60;99.90;;;;;;5054262;28;20169;-76
2021/01/01 05:26:29;;;;;;;0.40;0.40;;;3.60;99.90;;;;;;5054411;28;20169;-75
2021/01/01 05:29:10;;;;;;;0.30;0.30;;;3.60;99.90;;;;;;5052786;28;20193;-76
2021/01/01 05:31:40;;;;;;;0.40;0.40;;;3.60;99.90;;;;;;5053823;28;20208;-76
2021/01/01 05:34:15;;;;;;;1.08;1.00;;;3.60;99.90;;;;;;5038719;28;20185;-76
2021/01/01 05:36:45;;;;;;;0.82;0.82;;;3.60;99.90;;;;;;5034309;28;20176;-76
2021/01/01 05:39:13;;;;;;;2.80;2.17;;;3.60;99.90;;;;;;5034645;28;20170;-75
2021/01/01 05:41:52;;;;;;;0.75;0.75;;;3.60;99.90;;;;;;5033074;28;20531;-76
2021/01/01 05:44:20;;;;;;;0.30;0.30;;;3.60;99.90;;;;;;5034045;28;20209;-76
2021/01/01 05:46:55;;;;;;;0.30;0.30;;;3.50;99.90;;;;;;5032446;28;20178;-75
2021/01/01 05:49:21;;;;;;;14.82;2.10;;;3.50;99.90;;;;;;5051405;28;20201;-75
2021/01/01 05:52:07;;;;;;;0.30;0.30;;;3.50;99.90;;;;;;5053140;28;20581;-76
2021/01/01 05:54:36;;;;;;;0.40;0.40;;;3.60;99.90;;;;;;5053583;28;20166;-75
2021/01/01 05:57:07;;;;;;;0.30;0.30;;;3.60;99.90;;;;;;5053551;28;20208;-74
2021/01/01 05:59:40;;;;;;;0.52;0.52;;;3.60;99.90;;;;;;5052440;28;20177;-76
2021/01/01 06:02:08;;;;;;;0.30;0.30;;;3.60;99.90;;;;;;5052577;28;20294;-74
2021/01/01 06:04:34;;;;;;;1.20;1.20;;;3.60;99.90;;;;;;5053444;28;20179;-77
2021/01/01 06:07:02;;;;;;;0.30;0.30;;;3.70;99.90;;;;;;5053370;28;20572;-77
2021/01/01 06:09:30;;;;;;;0.30;0.30;;;3.60;99.90;;;;;;5053350;28;20451;-74
2021/01/01 06:11:59;;;;;;;1.25;1.25;;;3.60;99.90;;;;;;5037838;28;20190;-75
2021/01/01 06:14:36;;;;;;;0.30;0.30;;;3.60;99.90;;;;;;5033479;28;20241;-75
2021/01/01 06:17:11;;;;;;;0.40;0.40;;;3.60;99.90;;;;;;5033440;28;20170;-76
2021/01/01 06:19:51;;;;;;;0.30;0.30;;;3.60;99.90;;;;;;5033341;28;20248;-75
2021/01/01 06:22:22;;;;;;;1.10;1.10;;;3.60;99.90;;;;;;5033190;28;20239;-77
2021/01/01 06:24:49;;;;;;;0.30;0.30;;;3.60;99.90;;;;;;5034349;28;20170;-75
2021/01/01 06:27:18;;;;;;;0.30;0.30;;;3.50;99.90;;;;;;5033481;28;20178;-76
2021/01/01 06:29:49;;;;;;;0.30;0.30;;;3.50;99.90;;;;;;5033305;28;20174;-75
2021/01/01 06:32:18;;;;;;;1.40;0.65;;;3.50;99.90;;;;;;5033173;28;20604;-77
2021/01/01 06:34:46;;;;;;;0.30;0.30;;;3.50;99.90;;;;;;5033081;28;20165;-75
2021/01/01 06:37:38;;;;;;;0.60;0.60;;;3.50;99.90;;;;;;5031989;28;20212;-76
2021/01/01 06:40:20;;;;;;;0.30;0.30;;;3.60;99.90;;;;;;5031478;28;20177;-77
2021/01/01 06:42:55;;;;;;;0.30;0.30;;;3.50;99.90;;;;;;5032901;28;20635;-76
2021/01/01 06:45:39;;;;;;;0.80;0.80;;;3.50;99.90;;;;;;5052016;28;20173;-75
2021/01/01 06:48:24;;;;;;;0.30;0.30;;;3.40;99.90;;;;;;5051910;28;20201;-76
2021/01/01 06:50:52;;;;;;;0.30;0.30;;;3.40;99.90;;;;;;5053122;28;20657;-76
2021/01/01 06:53:25;;;;;;;0.30;0.30;;;3.30;99.90;;;;;;5053254;28;20235;-75
2021/01/01 06:55:51;;;;;;;0.40;0.40;;;3.30;99.90;;;;;;5053519;28;20170;-75
2021/01/01 06:58:25;;;;;;;0.35;0.35;;;3.20;99.90;;;;;;5043630;28;20174;-76
2021/01/01 07:00:51;;;;;;;0.30;0.30;;;3.20;99.90;;;;;;5032564;28;20182;-75
2021/01/01 07:03:28;;;;;;;0.30;0.30;;;3.20;99.90;;;;;;5032875;28;20220;-76
2021/01/01 07:05:55;;;;;;;0.30;0.30;;;3.10;99.90;;;;;;5033069;28;20186;-76
2021/01/01 07:08:39;;;;;;;2.25;1.02;;;3.10;99.90;;;;;;5033018;28;20201;-75
2021/01/01 07:11:25;;;;;;;0.30;0.30;;;3.10;99.90;;;;;;5041609;28;20189;-75
2021/01/01 07:13:55;;;;;;;0.30;0.30;;;3.10;99.90;;;;;;5039046;28;20689;-76
2021/01/01 07:16:30;;;;;;;0.30;0.30;;;3.10;99.90;;;;;;5052790;28;20495;-74
2021/01/01 07:18:55;;;;;;;0.40;0.40;;;3.10;99.90;;;;;;5051338;28;20532;-75
2021/01/01 07:21:21;;;;;;;0.57;0.57;;;3.10;99.90;;;;;;5052180;28;20193;-75
2021/01/01 07:23:47;;;;;;;0.30;0.30;;;3.10;99.90;;;;;;5053027;28;20205;-77
2021/01/01 07:26:14;;;;;;;0.30;0.30;;;3.20;99.90;;;;;;5054688;28;20174;-76
2021/01/01 07:28:41;;;;;;;0.35;0.35;;;3.10;99.90;;;;;;5043869;28;20204;-75
2021/01/01 07:31:08;;;;;;;0.35;0.35;;;3.20;99.90;;;;;;5036005;28;20189;-76
2021/01/01 07:33:34;;;;;;;0.30;0.30;;;3.10;99.90;;;;;;5036218;28;20181;-75
2021/01/01 07:36:01;;;;;;;0.88;0.88;;;3.10;99.90;;;;;;5036522;28;20162;-74
2021/01/01 07:38:29;;;;;;;0.30;0.30;;;3.20;99.90;;;;;;5046845;28;20661;-76
2021/01/01 07:40:55;;;;;;;0.30;0.30;;;3.20;99.90;;;;;;5055589;28;20593;-76
2021/01/01 07:43:21;;;;;;;0.85;0.85;;;3.20;99.90;;;;;;5056066;28;20248;-75
2021/01/01 07:45:48;;;;;;;0.40;0.40;;;3.20;99.90;;;;;;5056116;28;20165;-77
2021/01/01 07:48:14;;;;;;;0.30;0.30;;;3.20;99.90;;;;;;5049496;28;20260;-75
2021/01/01 07:50:40;;;;;;;0.30;0.30;;;3.20;99.90;;;;;;5035467;28;20170;-77
2021/01/01 07:53:09;;;;;;;0.40;0.40;;;3.20;99.90;;;;;;5034787;28;20630;-76
2021/01/01 07:55:36;;;;;;;0.30;0.30;;;3.20;99.90;;;;;;5036031;28;20224;-76
2021/01/01 07:58:10;;;;;;;0.30;0.30;;;3.20;99.90;;;;;;5035938;28;20208;-74
2021/01/01 08:00:39;;;;;;;0.52;0.52;;;3.20;99.90;;;;;;5035249;28;20189;-76
2021/01/01 08:03:06;;;;;;;0.30;0.30;;;3.20;99.90;;;;;;5035933;28;20182;-76
2021/01/01 08:05:32;;;;;;;0.30;0.20;;;3.20;99.90;;;;;;5034260;28;20197;-74
2021/01/01 08:08:15;;;;;;;0.30;0.30;;;3.30;99.90;;;;;;5035990;28;20577;-76
2021/01/01 08:10:42;;;;;;;0.30;0.30;;;3.30;99.90;;;;;;5035596;28;20178;-76
2021/01/01 08:13:21;;;;;;;0.30;0.30;;;3.30;99.90;;;;;;5036147;28;20201;-75
2021/01/01 08:15:49;;;;;;;0.32;0.32;;;3.20;99.90;;;;;;5035562;28;20272;-75
2021/01/01 08:18:19;;;;;;;0.30;0.30;;;3.30;99.90;;;;;;5035572;28;20170;-75
2021/01/01 08:20:47;;;;;;;1.60;0.65;;;3.30;99.90;;;;;;5035039;28;20177;-76
2021/01/01 08:23:16;;;;;;;0.43;0.43;;;3.30;99.90;;;;;;5035523;28;20166;-74
2021/01/01 08:25:43;;;;;;;0.30;0.30;;;3.30;99.90;;;;;;5036425;28;20178;-75
2021/01/01 08:28:11;;;;;;;0.30;0.30;;;3.40;99.90;;;;;;5035132;28;20206;-74
2021/01/01 08:30:38;;;;;;;0.30;0.30;;;3.40;99.90;;;;;;5033591;28;20200;-76
2021/01/01 08:33:06;;;;;;;0.30;0.30;;;3.40;99.90;;;;;;5035227;28;20198;-77
2021/01/01 08:35:32;;;;;;;0.30;0.30;;;3.50;99.90;;;;;;5035268;28;20224;-74
2021/01/01 08:37:58;;;;;;;0.32;0.32;;;3.50;99.90;;;;;;5034094;28;20170;-75
2021/01/01 08:40:24;;;;;;;0.30;0.20;;;3.50;99.90;;;;;;5036606;28;20174;-76
2021/01/01 08:42:54;;;;;;;0.30;0.30;;;3.50;99.90;;;;;;5054808;28;20473;-75
2021/01/01 08:45:21;;;;;;;0.47;0.47;;;3.50;99.90;;;;;;5054910;28;20503;-77
2021/01/01 08:47:49;;;;;;;0.30;0.28;;;3.60;99.90;;;;;;5054681;28;20271;-76
2021/01/01 08:50:28;;;;;;;0.38;0.38;;;3.60;99.90;;;;;;5054161;28;20180;-75
2021/01/01 08:53:00;;;;;;;0.30;0.30;;;3.70;99.90;;;;;;5054727;28;20197;-76
2021/01/01 08:55:28;;;;;;;0.30;0.20;;;3.70;99.90;;;;;;5054758;28;20193;-76
2021/01/01 08:58:14;;;;;;;0.30;0.30;;;3.70;99.90;;;;;;5054539;28;20220;-75
2021/01/01 09:00:43;;;;;;;0.30;0.20;;;3.80;99.90;;;;;;5053883;28;20189;-77
2021/01/01 09:03:10;;;;;;;0.30;0.30;;;3.80;99.90;;;;;;5041691;28;20189;-75
2021/01/01 09:05:36;;;;;;;0.95;0.70;;;3.90;99.90;;;;;;5034335;28;20183;-75
2021/01/01 09:08:06;;;;;;;0.32;0.32;;;3.90;99.90;;;;;;5034585;28;20549;-74
2021/01/01 09:10:31;;;;;;;0.30;0.30;;;4.00;99.90;;;;;;5034025;28;20240;-75
2021/01/01 09:12:58;;;;;;;0.30;0.30;;;4.10;99.90;;;;;;5034484;28;20296;-75
2021/01/01 09:15:30;;;;;;;0.50;0.50;;;4.20;99.90;;;;;;5034254;28;20166;-76
2021/01/01 09:18:06;;;;;;;0.30;0.30;;;4.20;99.90;;;;;;5045383;28;20790;-75
2021/01/01 09:20:33;;;;;;;0.30;0.30;;;4.20;99.90;;;;;;5053961;28;20161;-76
2021/01/01 09:23:01;;;;;;;0.30;0.30;;;4.30;99.90;;;;;;5054082;28;20556;-75
2021/01/01 09:25:28;;;;;;;0.77;0.77;;;4.20;99.90;;;;;;5052664;28;20533;-76
2021/01/01 09:27:55;;;;;;;0.30;0.30;;;4.30;99.90;;;;;;5054072;28;20243;-76
2021/01/01 09:30:23;;;;;;;0.40;0.40;;;4.30;99.90;;;;;;5053928;28;20166;-75
2021/01/01 09:32:52;;;;;;;0.30;0.20;;;4.30;99.90;;;;;;5039892;28;20194;-76
2021/01/01 09:35:20;;;;;;;0.30;0.30;;;4.30;99.90;;;;;;5034195;28;20224;-75
2021/01/01 09:38:02;;;;;;;0.30;0.20;;;4.30;99.90;;;;;;5034272;28;20170;-75
2021/01/01 09:40:31;;;;;;;0.30;0.28;;;4.40;99.90;;;;;;5033794;28;20240;-75
2021/01/01 09:43:00;;;;;;;0.30;0.20;;;4.50;99.90;;;;;;5032394;28;20248;-77
2021/01/01 09:45:26;;;;;;;0.30;0.30;;;4.60;99.90;;;;;;5033315;28;20185;-76
2021/01/01 09:47:52;;;;;;;0.30;0.30;;;4.70;99.90;;;;;;5033568;28;20202;-75
2021/01/01 09:50:17;;;;;;;0.30;0.30;;;4.80;99.90;;;;;;5032087;28;20174;-76
2021/01/01 09:52:43;;;;;;;0.30;0.30;;;4.90;99.90;;;;;;5033406;28;20198;-74
2021/01/01 09:55:09;;;;;;;0.30;0.30;;;4.90;99.90;;;;;;5053818;28;20252;-76
2021/01/01 09:57:38;;;;;;;0.30;0.30;;;5.00;99.90;;;;;;5053630;28;20193;-77
2021/01/01 10:00:09;;;;;;;0.30;0.30;;;5.00;99.90;;;;;;5051417;28;20240;-75
2021/01/01 10:02:35;;;;;;;1.10;0.98;;;5.00;99.90;;;;;;5050198;28;20248;-77
2021/01/01 10:05:01;;;;;;;0.30;0.30;;;5.10;99.90;;;;;;5051796;28;20174;-74
2021/01/01 10:07:27;;;;;;;0.30;0.30;;;5.10;99.90;;;;;;5053287;28;20169;-75
2021/01/01 10:09:53;;;;;;;2.15;2.05;;;5.10;99.90;;;;;;5052189;28;20580;-74
2021/01/01 10:12:19;;;;;;;0.43;0.43;;;5.10;99.90;;;;;;5051672;28;20202;-74
2021/01/01 10:14:46;;;;;;;0.30;0.30;;;5.20;99.90;;;;;;5051431;28;20162;-75
2021/01/01 10:17:12;;;;;;;0.40;0.40;;;5.20;99.90;;;;;;5053052;28;20924;-75
2021/01/01 10:19:41;;;;;;;0.30;0.23;;;5.30;99.90;;;;;;5052473;28;20171;-74
2021/01/01 10:22:10;;;;;;;0.30;0.30;;;5.50;99.90;;;;;;5049678;28;20224;-75
2021/01/01 10:24:35;;;;;;;0.30;0.30;;;5.50;99.90;;;;;;5052035;28;20580;-78
2021/01/01 10:27:01;;;;;;;0.30;0.30;;;5.60;99.90;;;;;;5052984;28;20218;-76
2021/01/01 10:29:27;;;;;;;0.30;0.30;;;5.70;99.90;;;;;;5052130;28;20280;-79
2021/01/01 10:31:53;;;;;;;0.30;0.30;;;5.80;99.90;;;;;;5052211;28;20546;-74
2021/01/01 10:34:19;;;;;;;0.37;0.37;;;5.90;99.90;;;;;;5053108;28;20175;-73
2021/01/01 10:36:45;;;;;;;0.30;0.30;;;5.90;99.90;;;;;;5052878;28;20219;-75
2021/01/01 10:39:11;;;;;;;3.40;1.13;;;5.90;99.90;;;;;;5036829;28;20196;-73
2021/01/01 10:41:38;;;;;;;0.30;0.30;;;6.00;99.90;;;;;;5032471;28;20185;-73
2021/01/01 10:44:04;;;;;;;0.30;0.30;;;5.90;99.90;;;;;;5032830;28;20173;-71
2021/01/01 10:46:30;;;;;;;0.30;0.30;;;5.90;99.90;;;;;;5033916;28;20177;-71
2021/01/01 10:48:55;;;;;;;0.30;0.30;;;5.90;99.90;;;;;;5052593;28;20547;-74
2021/01/01 10:51:26;;;;;;;0.30;0.30;;;5.80;99.90;;;;;;5052273;28;20429;-71
2021/01/01 10:53:52;;;;;;;0.30;0.30;;;5.70;99.90;;;;;;5051377;28;20177;-75
2021/01/01 10:56:25;;;;;;;0.30;0.30;;;5.70;99.90;;;;;;5052373;28;20232;-75
2021/01/01 10:58:51;;;;;;;0.30;0.30;;;5.80;99.90;;;;;;5038134;28;20273;-73
2021/01/01 11:01:25;;;;;;;0.30;0.30;;;5.70;99.90;;;;;;5034637;28;20234;-78
2021/01/01 11:03:52;;;;;;;0.30;0.30;;;5.70;99.90;;;;;;5050598;28;20426;-71
2021/01/01 11:06:19;;;;;;;0.40;0.40;;;5.80;99.90;;;;;;5056666;28;20182;-75
2021/01/01 11:08:46;;;;;;;0.60;0.60;;;5.80;99.90;;;;;;5056517;28;20677;-76
2021/01/01 11:11:13;;;;;;;0.40;0.40;;;5.70;99.90;;;;;;5054961;28;20207;-72
2021/01/01 11:13:48;;;;;;;0.30;0.20;;;5.60;99.90;;;;;;5055659;28;20190;-77
2021/01/01 12:24:55;;;;;;;0.30;0.30;;;5.80;99.90;;;;;;5055254;28;20176;-73
2021/01/01 12:27:24;;;;;;;2.45;1.20;;;5.80;99.90;;;;;;5054933;28;20533;-75
2021/01/01 12:29:51;;;;;;;0.30;0.30;;;5.80;99.90;;;;;;5055016;28;20170;-75
2021/01/01 12:32:18;;;;;;;0.30;0.28;;;5.70;99.90;;;;;;5045585;28;20269;-73
2021/01/01 12:34:44;;;;;;;0.30;0.30;;;5.70;99.90;;;;;;5053665;28;20178;-75
2021/01/01 12:37:11;;;;;;;0.37;0.37;;;5.70;99.90;;;;;;5053855;28;20666;-73
2021/01/01 12:39:37;;;;;;;0.68;0.68;;;5.80;99.90;;;;;;5054589;28;21034;-71
2021/01/01 12:42:03;;;;;;;0.30;0.30;;;5.80;99.90;;;;;;5054131;28;20208;-71
2021/01/01 12:44:30;;;;;;;0.30;0.30;;;5.80;99.90;;;;;;5055000;28;20285;-73
2021/01/01 12:46:57;;;;;;;0.30;0.30;;;5.70;99.90;;;;;;5055010;28;20177;-74
2021/01/01 12:49:22;;;;;;;0.30;0.30;;;5.60;99.90;;;;;;5054495;28;20629;-74
2021/01/01 12:51:48;;;;;;;0.30;0.30;;;5.60;99.90;;;;;;5053666;28;20276;-74
2021/01/01 12:54:14;;;;;;;1.37;0.70;;;5.60;99.90;;;;;;5055181;28;20176;-71
2021/01/01 12:56:39;;;;;;;0.30;0.30;;;5.50;99.90;;;;;;5054956;28;20532;-75
2021/01/01 12:59:05;;;;;;;0.73;0.73;;;5.50;99.90;;;;;;5054385;28;20174;-72
2021/01/01 13:01:32;;;;;;;0.37;0.37;;;5.50;99.90;;;;;;5053698;28;20204;-71
2021/01/01 13:03:58;;;;;;;0.30;0.30;;;5.50;99.90;;;;;;5053241;28;20611;-75
2021/01/01 13:06:24;;;;;;;0.40;0.40;;;5.40;99.90;;;;;;5052078;28;20462;-73
2021/01/01 13:08:50;;;;;;;0.30;0.30;;;5.40;99.90;;;;;;5054260;28;20453;-76
2021/01/01 13:11:16;;;;;;;0.30;0.30;;;5.40;99.90;;;;;;5046047;28;20614;-76
2021/01/01 13:13:42;;;;;;;0.30;0.30;;;5.40;99.90;;;;;;5034956;28;20403;-74
2021/01/01 13:16:07;;;;;;;0.50;0.47;;;5.40;99.90;;;;;;5034584;28;20245;-76
2021/01/01 13:18:33;;;;;;;0.37;0.37;;;5.40;99.90;;;;;;5034480;28;20705;-75
2021/01/01 13:20:58;;;;;;;0.30;0.30;;;5.30;99.90;;;;;;5037546;28;20300;-76
2021/01/01 13:23:24;;;;;;;0.40;0.40;;;5.30;99.90;;;;;;5053824;28;20170;-76
2021/01/01 13:25:50;;;;;;;0.30;0.30;;;5.30;99.90;;;;;;5054404;28;20169;-76
2021/01/01 13:28:15;;;;;;;0.30;0.30;;;5.30;99.90;;;;;;5044810;28;20209;-76
2021/01/01 13:30:41;;;;;;;0.30;0.27;;;5.30;99.90;;;;;;5033869;28;20170;-73
2021/01/01 13:33:07;;;;;;;0.40;0.40;;;5.30;99.90;;;;;;5032732;28;20181;-71
2021/01/01 13:35:32;;;;;;;0.30;0.30;;;5.30;99.90;;;;;;5034041;28;20170;-72
2021/01/01 13:37:58;;;;;;;0.30;0.30;;;5.30;99.90;;;;;;5035102;28;20210;-70
2021/01/01 13:40:25;;;;;;;0.43;0.43;;;5.30;99.90;;;;;;5033696;28;20175;-75
2021/01/01 13:42:51;;;;;;;0.30;0.30;;;5.30;99.90;;;;;;5033690;28;20244;-74
2021/01/01 13:45:17;;;;;;;0.30;0.20;;;5.40;99.90;;;;;;5033991;28;20221;-73
2021/01/01 13:47:43;;;;;;;0.30;0.30;;;5.40;99.90;;;;;;5034016;28;20561;-74
2021/01/01 13:50:10;;;;;;;0.30;0.30;;;5.50;99.90;;;;;;5033494;28;20229;-73
2021/01/01 13:52:36;;;;;;;0.30;0.30;;;5.50;99.90;;;;;;5032758;28;20434;-73
2021/01/01 13:55:01;;;;;;;0.30;0.30;;;5.50;99.90;;;;;;5032030;28;20167;-75
2021/01/01 13:57:27;;;;;;;0.97;0.97;;;5.50;99.90;;;;;;5037577;28;20529;-73
2021/01/01 13:59:53;;;;;;;0.97;0.97;;;5.60;99.90;;;;;;5053456;28;20169;-77
2021/01/01 14:02:19;;;;;;;0.50;0.50;;;5.50;99.90;;;;;;5053377;28;20530;-75
2021/01/01 14:04:45;;;;;;;0.30;0.30;;;5.50;99.90;;;;;;5053387;28;20251;-74
2021/01/01 14:07:10;;;;;;;0.40;0.40;;;5.50;99.90;;;;;;5053265;28;20188;-74
2021/01/01 14:09:36;;;;;;;0.30;0.30;;;5.60;99.90;;;;;;5053208;28;20197;-76